Time;durP1;ratioP1;P1;durP2;ratioP2;P2;SDS_P1;SDS_P2;PMS_P1;PMS_P2;Temp;Humidity;BMP_temperature;BMP_pressure;BME280_temperature;BME280_humidity;BME280_pressure;Samples;Min_cycle;Max_cycle;Signal;HPM_P1;HPM_P2
2023/01/14 00:00:28;;;;;;;43.05;22.58;;;;;;;8.12;59.63;100087.00;4347930;33;20896;-96
2023/01/14 00:03:03;;;;;;;56.33;23.95;;;;;;;8.15;59.63;100087.78;4344639;33;21156;-96
2023/01/14 00:05:30;;;;;;;52.38;23.65;;;;;;;8.21;59.63;100092.00;4349714;33;20103;-96
2023/01/14 00:08:02;;;;;;;48.05;24.02;;;;;;;8.26;59.64;100093.63;4336036;33;20126;-96
2023/01/14 00:10:37;;;;;;;47.40;22.58;;;;;;;8.11;59.63;100093.06;4356400;32;20133;-96
2023/01/14 00:13:27;;;;;;;40.70;21.48;;;;;;;8.19;59.63;100089.44;4466540;27;20031;-96
2023/01/14 00:16:22;;;;;;;43.00;20.77;;;;;;;8.23;59.64;100095.44;4545961;27;20110;-96
2023/01/14 00:19:14;;;;;;;47.08;22.00;;;;;;;8.24;59.64;100099.72;4372124;32;20075;-96
2023/01/14 00:22:00;;;;;;;51.42;23.65;;;;;;;8.16;59.63;100092.09;4375882;32;20138;-96
2023/01/14 00:30:07;;;;;;;46.55;23.02;;;;;;;8.03;59.62;100090.56;4648457;27;20160;-96
2023/01/14 00:32:32;;;;;;;49.20;23.75;;;;;;;8.12;59.63;100097.38;4315460;33;20162;-96
2023/01/14 00:35:00;;;;;;;48.42;23.77;;;;;;;7.86;59.62;100087.41;4305466;33;20120;-96
2023/01/14 00:37:26;;;;;;;44.65;23.35;;;;;;;7.99;59.62;100089.75;4296693;33;20104;-96
2023/01/14 00:39:51;;;;;;;47.47;22.98;;;;;;;7.94;59.62;100096.78;4303198;33;20191;-96
2023/01/14 00:42:17;;;;;;;50.35;23.67;;;;;;;7.98;59.62;100094.97;4289039;33;20141;-96
2023/01/14 00:44:42;;;;;;;48.13;23.08;;;;;;;7.97;59.62;100103.62;4319224;33;20211;-96
2023/01/14 00:47:08;;;;;;;52.28;23.83;;;;;;;7.90;59.62;100099.44;4309171;33;20155;-96
2023/01/14 00:49:33;;;;;;;52.45;23.45;;;;;;;7.97;59.62;100103.62;4309040;33;20162;-96
2023/01/14 00:52:00;;;;;;;49.65;23.85;;;;;;;8.05;59.62;100098.34;4306855;33;20516;-95
2023/01/14 00:54:29;;;;;;;48.10;23.77;;;;;;;7.97;59.61;100103.62;4305798;33;20119;-94
2023/01/14 00:56:56;;;;;;;50.70;23.58;;;;;;;7.89;59.62;100098.59;4307450;33;20286;-96
2023/01/14 00:59:24;;;;;;;50.33;23.65;;;;;;;8.03;59.62;100103.53;4318664;33;20215;-94
2023/01/14 01:01:51;;;;;;;54.55;24.50;;;;;;;7.93;59.62;100100.25;4309847;33;20112;-95
2023/01/14 01:04:17;;;;;;;64.60;25.50;;;;;;;7.92;59.62;100106.31;4313613;33;20103;-95
2023/01/14 01:06:52;;;;;;;57.00;25.50;;;;;;;7.90;59.61;100100.28;4317966;33;20382;-95
2023/01/14 01:09:17;;;;;;;66.28;24.63;;;;;;;7.96;59.62;100097.59;4326015;33;20112;-96
2023/01/14 01:11:43;;;;;;;51.50;25.25;;;;;;;7.86;59.62;100098.63;4335627;33;20166;-93
2023/01/14 01:14:09;;;;;;;59.17;24.48;;;;;;;7.89;59.62;100092.53;4320490;33;20084;-94
2023/01/14 01:16:34;;;;;;;97.28;26.70;;;;;;;8.04;59.62;100100.06;4310317;33;20148;-94
2023/01/14 01:19:00;;;;;;;52.92;23.75;;;;;;;7.94;59.62;100099.34;4309380;33;20123;-95
2023/01/14 01:21:25;;;;;;;67.43;24.55;;;;;;;7.89;59.62;100098.59;4311508;33;20099;-95
2023/01/14 01:23:51;;;;;;;101.85;23.38;;;;;;;7.94;59.62;100104.53;4312115;33;20131;-94
2023/01/14 01:26:18;;;;;;;60.97;24.90;;;;;;;7.84;59.62;100096.94;4324173;33;20132;-96
2023/01/14 01:28:47;;;;;;;149.87;25.65;;;;;;;7.91;59.61;100094.22;4315798;33;20080;-94
2023/01/14 01:31:12;;;;;;;106.40;26.73;;;;;;;7.82;59.61;100101.31;4316939;33;20080;-96
2023/01/14 01:33:38;;;;;;;143.40;24.60;;;;;;;7.87;59.62;100096.91;4323173;33;20091;-96
2023/01/14 01:36:06;;;;;;;68.05;22.60;;;;;;;7.82;59.61;100102.16;4313282;33;20080;-95
2023/01/14 01:38:32;;;;;;;77.40;23.92;;;;;;;7.85;59.62;100106.44;4313602;33;20068;-96
2023/01/14 01:40:57;;;;;;;67.65;22.42;;;;;;;7.77;59.60;100103.09;4322067;33;20134;-95
2023/01/14 01:43:26;;;;;;;57.70;22.30;;;;;;;7.79;59.61;100106.50;4312336;33;20114;-93
2023/01/14 01:45:51;;;;;;;58.95;23.95;;;;;;;8.01;59.62;100105.28;4303347;33;20139;-94
2023/01/14 01:48:20;;;;;;;122.90;23.08;;;;;;;7.89;59.62;100101.19;4319606;33;20112;-94
2023/01/14 01:50:47;;;;;;;75.50;22.10;;;;;;;7.75;59.61;100102.25;4313573;33;20115;-96
2023/01/14 01:53:13;;;;;;;67.53;23.02;;;;;;;7.86;59.62;100103.81;4320232;33;20118;-96
2023/01/14 01:55:40;;;;;;;42.00;21.80;;;;;;;7.82;59.61;100101.31;4325170;33;20086;-96
2023/01/14 01:58:07;;;;;;;49.08;23.55;;;;;;;7.83;59.61;100101.28;4316248;33;20084;-96
2023/01/14 02:00:32;;;;;;;44.63;20.23;;;;;;;7.83;59.61;100103.00;4315692;33;20449;-96
2023/01/14 02:03:01;;;;;;;46.45;21.17;;;;;;;7.85;59.62;100103.84;4323390;33;20122;-95
2023/01/14 02:05:27;;;;;;;43.75;20.75;;;;;;;7.86;59.62;100095.19;4327077;33;20083;-96
2023/01/14 02:08:00;;;;;;;47.15;20.98;;;;;;;7.94;59.62;100106.28;4320736;33;20156;-96
2023/01/14 02:10:49;;;;;;;108.57;24.23;;;;;;;7.84;59.62;100110.75;4314817;33;20115;-94
2023/01/14 02:13:24;;;;;;;44.53;21.35;;;;;;;7.81;59.61;100116.00;4344174;33;20091;-96
2023/01/14 02:16:34;;;;;;;39.42;20.12;;;;;;;7.79;59.61;100116.88;4330672;33;20088;-95
2023/01/14 02:19:08;;;;;;;41.03;20.17;;;;;;;7.84;59.62;100107.31;4311986;33;20072;-96
2023/01/14 02:21:40;;;;;;;44.00;19.05;;;;;;;7.86;59.62;100111.59;4325950;33;20181;-95
2023/01/14 02:24:06;;;;;;;55.80;19.83;;;;;;;7.70;59.61;100110.09;4328681;33;20103;-96
2023/01/14 02:26:51;;;;;;;38.78;19.98;;;;;;;7.71;59.60;100109.22;4352656;33;20092;-95
2023/01/14 02:29:28;;;;;;;42.15;19.15;;;;;;;7.62;59.61;100101.59;4340034;33;20108;-96
2023/01/14 02:32:19;;;;;;;46.42;19.58;;;;;;;7.60;59.60;100109.38;4350385;33;20108;-95
2023/01/14 02:34:51;;;;;;;54.85;19.92;;;;;;;7.66;59.60;100113.62;4352892;33;20132;-96
2023/01/14 02:37:35;;;;;;;64.47;21.27;;;;;;;7.61;59.61;100105.91;4330060;33;20095;-96
2023/01/14 02:40:16;;;;;;;52.35;20.65;;;;;;;7.75;59.61;100108.28;4334108;33;20116;-96
2023/01/14 02:45:50;;;;;;;138.80;20.23;;;;;;;7.83;59.61;100115.97;4318342;33;20091;-96
2023/01/14 02:48:16;;;;;;;119.30;20.92;;;;;;;7.87;59.62;100109.84;4304127;33;20143;-95
2023/01/14 02:50:44;;;;;;;133.07;21.15;;;;;;;7.58;59.60;100111.16;4315836;33;20072;-96
2023/01/14 02:53:10;;;;;;;112.03;19.95;;;;;;;7.59;59.60;100119.78;4348919;33;20097;-96
2023/01/14 02:55:36;;;;;;;137.23;20.98;;;;;;;7.70;59.61;100131.69;4333906;33;20067;-96
2023/01/14 02:58:45;;;;;;;71.70;19.73;;;;;;;7.50;59.60;100123.31;4334300;33;20065;-96
2023/01/14 03:01:49;;;;;;;111.95;19.30;;;;;;;7.57;59.60;100127.56;4348737;33;20072;-96
2023/01/14 03:04:37;;;;;;;78.82;18.20;;;;;;;7.52;59.59;100131.94;4348412;33;20098;-96
2023/01/14 03:07:17;;;;;;;72.60;18.65;;;;;;;7.86;59.62;100132.31;4339054;33;20052;-96
2023/01/14 03:10:30;;;;;;;70.78;18.75;;;;;;;7.80;59.61;100141.91;4335027;33;20064;-96
2023/01/14 03:13:25;;;;;;;63.28;19.70;;;;;;;7.52;59.59;100144.03;4339496;33;20080;-96
2023/01/14 03:16:41;;;;;;;67.35;17.65;;;;;;;7.27;59.58;100146.94;4322343;33;20123;-96
2023/01/14 03:19:57;;;;;;;76.50;18.80;;;;;;;7.34;59.59;100148.59;4333280;33;20086;-96
2023/01/14 03:22:32;;;;;;;59.15;18.05;;;;;;;7.28;59.58;100158.13;4287940;33;20061;-96
2023/01/14 03:25:00;;;;;;;86.30;19.33;;;;;;;7.33;59.58;100144.28;4275722;33;20851;-95
2023/01/14 03:27:31;;;;;;;68.35;19.37;;;;;;;7.22;59.58;100150.47;4326976;33;20122;-96
2023/01/14 03:30:05;;;;;;;55.05;18.60;;;;;;;7.07;59.57;100154.94;4361198;33;20102;-96
2023/01/14 03:32:50;;;;;;;114.15;19.87;;;;;;;7.02;59.56;100155.84;4350064;33;20087;-95
2023/01/14 03:35:42;;;;;;;73.87;17.52;;;;;;;6.88;59.56;100163.78;4361311;33;20095;-95
2023/01/14 03:38:30;;;;;;;54.78;17.65;;;;;;;6.96;59.57;100161.97;4348080;33;20142;-95
2023/01/14 03:42:17;;;;;;;65.80;21.40;;;;;;;6.86;59.56;100162.06;4337781;33;20067;-96
2023/01/14 03:45:01;;;;;;;75.03;22.62;;;;;;;6.74;59.56;100168.22;4321167;33;20068;-94
2023/01/14 03:50:18;;;;;;;143.00;39.60;;;;;;;6.70;59.55;100171.72;4381175;27;20111;-96
2023/01/14 03:52:48;;;;;;;71.97;24.33;;;;;;;6.57;59.54;100178.72;4341319;32;20825;-95
2023/01/14 03:55:39;;;;;;;64.95;19.85;;;;;;;6.81;59.56;100182.81;4354158;33;20091;-96
2023/01/14 03:58:20;;;;;;;82.82;16.80;;;;;;;6.81;59.56;100182.81;4345581;32;20080;-94
2023/01/14 04:00:52;;;;;;;135.27;39.85;;;;;;;6.59;59.55;100176.97;4373733;32;20165;-96
2023/01/14 04:11:26;;;;;;;85.55;24.98;;;;;;;6.22;59.53;100170.41;4440550;27;20129;-96
2023/01/14 04:27:08;;;;;;;40.92;18.87;;;;;;;6.31;59.53;100181.53;4740075;27;20063;-96
2023/01/14 04:29:35;;;;;;;48.20;17.60;;;;;;;6.40;59.53;100178.88;4348915;32;20098;-96
2023/01/14 04:32:03;;;;;;;49.72;18.17;;;;;;;6.47;59.54;100180.53;4360930;32;20113;-96
2023/01/14 04:34:55;;;;;;;43.97;18.27;;;;;;;6.39;59.53;100182.34;4350468;32;20099;-96
2023/01/14 04:37:49;;;;;;;48.40;16.35;;;;;;;6.45;59.54;100184.03;4393405;27;20102;-96
2023/01/14 04:40:14;;;;;;;142.55;21.87;;;;;;;6.45;59.54;100184.88;4346979;32;20083;-96
2023/01/14 04:42:40;;;;;;;40.47;17.62;;;;;;;6.33;59.53;100204.78;4347671;32;20470;-96
2023/01/14 04:45:06;;;;;;;49.90;16.65;;;;;;;6.50;59.53;100204.66;4345295;32;20087;-96
2023/01/14 04:47:31;;;;;;;42.62;18.33;;;;;;;6.33;59.53;100208.22;4358405;32;20083;-96
2023/01/14 04:49:57;;;;;;;69.22;20.15;;;;;;;6.31;59.53;100202.22;4326517;33;20211;-96
2023/01/14 04:52:37;;;;;;;92.00;17.20;;;;;;;6.30;59.53;100215.16;4330596;33;20117;-96
2023/01/14 04:55:02;;;;;;;49.28;16.02;;;;;;;6.41;59.53;100213.37;4352027;33;20082;-96
2023/01/14 04:57:28;;;;;;;139.65;18.65;;;;;;;6.53;59.54;100221.00;4340944;32;20445;-95
2023/01/14 04:59:53;;;;;;;91.78;17.27;;;;;;;6.26;59.52;100216.91;4352035;33;20108;-96
2023/01/14 05:02:19;;;;;;;149.32;17.73;;;;;;;6.49;59.54;100218.47;4356085;32;20111;-96
2023/01/14 05:04:44;;;;;;;136.50;19.75;;;;;;;6.44;59.54;100221.09;4355786;32;20138;-96
2023/01/14 05:07:10;;;;;;;195.20;17.50;;;;;;;6.31;59.53;100212.56;4354500;32;20143;-95
2023/01/14 05:09:35;;;;;;;224.85;18.48;;;;;;;6.40;59.53;100209.91;4366520;32;20095;-96
2023/01/14 05:12:01;;;;;;;216.32;17.15;;;;;;;6.29;59.53;100208.28;4345254;33;20202;-96
2023/01/14 05:14:26;;;;;;;164.15;17.75;;;;;;;6.26;59.52;100210.88;4336652;33;20091;-95
2023/01/14 05:16:52;;;;;;;149.30;16.45;;;;;;;6.14;59.52;100219.56;4338940;33;20103;-96
2023/01/14 05:19:17;;;;;;;144.98;18.10;;;;;;;6.16;59.53;100220.44;4349259;33;20108;-96
2023/01/14 05:21:43;;;;;;;85.57;14.95;;;;;;;6.07;59.52;100218.75;4345474;33;20157;-96
2023/01/14 05:24:11;;;;;;;219.62;20.05;;;;;;;6.17;59.52;100219.56;4354869;33;20121;-96
2023/01/14 05:39:57;;;;;;;143.40;15.30;;;;;;;5.93;59.51;100235.22;4695237;27;20089;-96
2023/01/14 05:48:09;;;;;;;65.15;13.55;;;;;;;6.10;59.52;100228.22;4366923;32;20081;-96
2023/01/14 05:50:50;;;;;;;47.45;14.38;;;;;;;6.25;59.52;100238.47;4376606;32;20051;-96
2023/01/14 05:53:39;;;;;;;;;;;;;;;;;;;;;
2023/01/14 05:56:11;;;;;;;;;;;;;;;6.33;59.53;100226.31;4373022;32;35768;-95
2023/01/14 06:15:17;;;;;;;32.45;17.48;;;;;;;5.48;59.48;100261.19;4389539;32;20118;-96
2023/01/14 06:17:46;;;;;;;33.38;16.87;;;;;;;5.43;59.48;100272.38;4365292;32;20851;-96
2023/01/14 06:20:12;;;;;;;31.23;18.20;;;;;;;5.51;59.48;100271.50;4352318;32;20756;-93
2023/01/14 06:22:38;;;;;;;30.12;16.70;;;;;;;5.39;59.48;100274.13;4363187;32;20263;-96
2023/01/14 06:25:04;;;;;;;27.05;15.20;;;;;;;5.57;59.49;100274.94;4351421;32;20111;-95
2023/01/14 06:27:29;;;;;;;33.03;16.80;;;;;;;5.61;59.48;100274.06;4358439;32;20081;-94
2023/01/14 06:29:55;;;;;;;42.80;18.70;;;;;;;5.54;59.49;100276.66;4375680;32;20114;-96
2023/01/14 06:32:49;;;;;;;;;;;;;;;;;;;;;
2023/01/14 06:35:19;;;;;;;56.47;21.23;;;;;;;5.59;59.49;100276.66;4356685;32;35512;-93
2023/01/14 06:38:39;;;;;;;;;;;;;;;;;;;;;
2023/01/14 06:41:10;;;;;;;;;;;;;;;;;;;;;
2023/01/14 06:43:36;;;;;;;29.30;14.27;;;;;;;4.98;59.45;100275.94;4348320;32;36380;-91
2023/01/14 06:46:04;;;;;;;28.30;14.27;;;;;;;5.03;59.46;100284.53;4345871;32;20107;-93
2023/01/14 06:48:32;;;;;;;27.60;13.60;;;;;;;4.96;59.45;100282.78;4355017;32;20091;-92
2023/01/14 06:51:12;;;;;;;29.12;13.60;;;;;;;4.90;59.45;100281.06;4354450;32;20095;-93
2023/01/14 06:56:59;;;;;;;23.65;11.65;;;;;;;5.06;59.46;100277.63;4361366;32;20106;-93
2023/01/14 06:59:24;;;;;;;26.05;12.65;;;;;;;4.73;59.45;100282.78;4359491;32;20445;-93
2023/01/14 07:01:52;;;;;;;25.05;11.95;;;;;;;4.72;59.43;100288.81;4352836;32;20095;-91
2023/01/14 07:04:17;;;;;;;27.73;13.32;;;;;;;4.78;59.44;100284.53;4365199;32;20110;-92
2023/01/14 07:06:43;;;;;;;77.78;16.83;;;;;;;4.73;59.44;100298.25;4340332;32;20130;-92
2023/01/14 07:09:13;;;;;;;103.40;19.62;;;;;;;4.70;59.44;100306.00;4368380;32;20148;-96
2023/01/14 07:15:13;;;;;;;70.45;14.95;;;;;;;4.92;59.45;100302.56;4452397;27;20114;-91
2023/01/14 07:17:39;;;;;;;87.53;15.55;;;;;;;4.70;59.44;100306.88;4359079;32;20083;-93
2023/01/14 07:20:06;;;;;;;43.58;14.80;;;;;;;4.53;59.43;100312.03;4354948;32;20450;-93
2023/01/14 07:22:31;;;;;;;34.47;15.73;;;;;;;4.56;59.43;100318.91;4367257;32;20067;-92
2023/01/14 07:24:57;;;;;;;36.25;15.82;;;;;;;4.79;59.45;100313.75;4354983;32;20094;-93
2023/01/14 07:27:22;;;;;;;33.75;16.45;;;;;;;4.71;59.43;100328.34;4361080;32;20110;-93
2023/01/14 07:29:48;;;;;;;32.53;15.20;;;;;;;4.61;59.43;100327.50;4351593;32;20133;-93
2023/01/14 07:32:13;;;;;;;34.03;16.67;;;;;;;4.72;59.44;100318.03;4370476;32;20170;-92
2023/01/14 07:34:38;;;;;;;28.40;14.27;;;;;;;4.83;59.44;100313.75;4357219;32;20194;-95
2023/01/14 07:37:04;;;;;;;28.15;13.95;;;;;;;4.77;59.44;100315.50;4355174;32;20091;-93
2023/01/14 07:39:29;;;;;;;28.15;14.27;;;;;;;5.05;59.46;100317.19;4361953;32;20762;-94
2023/01/14 07:41:55;;;;;;;28.80;13.65;;;;;;;5.14;59.46;100312.03;4348109;32;20129;-92
2023/01/14 07:44:23;;;;;;;26.45;13.18;;;;;;;5.30;59.47;100317.16;4374595;32;20141;-94
2023/01/14 07:46:58;;;;;;;21.48;12.02;;;;;;;5.37;59.47;100329.19;4349500;32;20087;-93
2023/01/14 07:49:26;;;;;;;22.92;12.15;;;;;;;5.64;59.49;100313.62;4352625;32;20090;-92
2023/01/14 07:51:51;;;;;;;24.40;12.23;;;;;;;5.43;59.48;100319.72;4348305;32;20095;-93
2023/01/14 07:54:17;;;;;;;28.38;13.93;;;;;;;5.52;59.48;100321.44;4340286;32;20157;-93
2023/01/14 07:56:43;;;;;;;20.90;11.20;;;;;;;5.70;59.50;100326.56;4340283;32;20123;-93
2023/01/14 07:59:08;;;;;;;21.77;12.00;;;;;;;5.97;59.51;100324.78;4342586;32;20116;-94
2023/01/14 08:01:34;;;;;;;24.95;11.88;;;;;;;5.99;59.51;100323.91;4359689;32;20148;-93
2023/01/14 08:03:59;;;;;;;23.60;12.25;;;;;;;5.83;59.51;100315.31;4354586;32;20429;-95
2023/01/14 08:06:24;;;;;;;22.75;12.02;;;;;;;5.92;59.51;100326.53;4344642;32;20194;-93
2023/01/14 08:08:50;;;;;;;21.75;11.80;;;;;;;6.04;59.51;100326.44;4342459;32;20129;-92
2023/01/14 08:11:15;;;;;;;21.00;11.07;;;;;;;6.09;59.52;100324.69;4345325;32;20749;-93
2023/01/14 08:13:41;;;;;;;19.55;10.90;;;;;;;6.34;59.53;100318.53;4351120;32;20440;-92
2023/01/14 08:16:08;;;;;;;19.90;10.35;;;;;;;6.42;59.54;100321.94;4344749;32;20234;-92
2023/01/14 08:18:35;;;;;;;20.20;9.75;;;;;;;6.39;59.53;100321.97;4364322;32;20083;-90
2023/01/14 08:21:03;;;;;;;18.55;9.77;;;;;;;6.57;59.54;100330.47;4352049;32;20095;-93
2023/01/14 08:23:29;;;;;;;16.08;9.23;;;;;;;6.66;59.55;100335.59;4352163;32;20209;-91
2023/01/14 08:25:59;;;;;;;19.70;9.70;;;;;;;6.83;59.56;100325.97;4352536;32;20127;-92
2023/01/14 08:28:24;;;;;;;;;;;;;;;6.91;59.56;100334.56;4352376;32;20401;-93
2023/01/14 08:30:49;;;;;;;17.98;9.73;;;;;;;6.96;59.57;100334.50;4364268;32;20003;-93
2023/01/14 08:33:15;;;;;;;16.85;8.60;;;;;;;7.01;59.56;100340.50;4352246;32;20094;-93
2023/01/14 08:35:41;;;;;;;17.65;9.07;;;;;;;7.20;59.58;100343.78;4352046;32;20155;-92
2023/01/14 08:38:07;;;;;;;20.95;9.55;;;;;;;7.19;59.58;100344.66;4351750;32;20110;-93
2023/01/14 08:40:32;;;;;;;18.70;9.85;;;;;;;7.06;59.57;100349.94;4352421;32;20117;-93
2023/01/14 08:42:58;;;;;;;17.67;9.55;;;;;;;7.31;59.58;100342.81;4351851;32;20136;-94
2023/01/14 08:45:23;;;;;;;16.70;8.98;;;;;;;7.43;59.59;100349.63;4351652;32;20110;-93
2023/01/14 08:47:49;;;;;;;18.90;9.68;;;;;;;7.45;59.59;100350.47;4352635;32;20095;-95
2023/01/14 08:50:14;;;;;;;18.35;9.05;;;;;;;7.76;59.62;100353.59;4352581;32;20121;-92
2023/01/14 08:52:41;;;;;;;16.17;9.02;;;;;;;7.79;59.61;100357.88;4343133;32;20107;-96
2023/01/14 08:55:06;;;;;;;18.20;9.63;;;;;;;7.83;59.62;100359.59;4342658;33;20111;-94
2023/01/14 08:57:32;;;;;;;17.55;8.65;;;;;;;7.98;59.62;100349.88;4349457;32;20107;-92
2023/01/14 08:59:57;;;;;;;18.12;9.18;;;;;;;8.05;59.62;100348.09;4349648;33;20155;-92
2023/01/14 09:02:23;;;;;;;18.87;9.52;;;;;;;8.17;59.63;100353.13;4364424;32;20143;-92
2023/01/14 09:04:48;;;;;;;16.77;8.90;;;;;;;8.20;59.63;100347.88;4352022;32;20203;-93
2023/01/14 09:18:12;;;;;;;14.77;5.82;;;;;;;8.79;59.66;100356.63;4354217;32;20102;-93
2023/01/14 09:20:39;;;;;;;11.55;5.87;;;;;;;8.90;59.68;100365.09;4351240;32;20154;-93
2023/01/14 09:23:06;;;;;;;13.52;6.05;;;;;;;8.98;59.68;100357.16;4371171;32;20137;-92
2023/01/14 09:25:32;;;;;;;10.90;5.80;;;;;;;9.01;59.68;100357.16;4354028;32;20160;-92
2023/01/14 09:27:59;;;;;;;15.55;6.62;;;;;;;9.01;59.68;100353.69;4351002;32;20733;-93
2023/01/14 09:30:26;;;;;;;11.80;6.15;;;;;;;8.98;59.68;100354.56;4342249;32;20174;-93
2023/01/14 09:32:51;;;;;;;13.85;6.07;;;;;;;9.10;59.68;100356.13;4352060;32;20115;-93
2023/01/14 09:35:17;;;;;;;16.65;7.03;;;;;;;8.99;59.68;100347.62;4363651;32;20445;-93
2023/01/14 09:37:42;;;;;;;10.63;5.82;;;;;;;9.31;59.69;100350.59;4351028;32;20488;-93
2023/01/14 09:40:08;;;;;;;11.93;5.55;;;;;;;9.38;59.70;100340.94;4346464;33;20393;-94
2023/01/14 09:42:41;;;;;;;13.27;6.07;;;;;;;9.62;59.71;100342.22;4345832;32;20733;-93
2023/01/14 09:45:16;;;;;;;10.00;5.18;;;;;;;9.48;59.70;100343.34;4339936;33;20817;-94
2023/01/14 09:47:42;;;;;;;11.60;5.30;;;;;;;9.41;59.69;100333.94;4372267;32;20091;-92
2023/01/14 09:50:14;;;;;;;7.47;4.03;;;;;;;9.67;59.71;100338.66;4363223;32;20109;-93
2023/01/14 09:52:51;;;;;;;8.63;4.37;;;;;;;9.60;59.71;100337.06;4351407;32;20115;-94
2023/01/14 09:55:24;;;;;;;8.38;4.15;;;;;;;9.60;59.71;100346.59;4351498;32;20478;-93
2023/01/14 09:57:55;;;;;;;9.13;4.25;;;;;;;9.52;59.70;100347.59;4341409;32;20099;-93
2023/01/14 10:00:32;;;;;;;7.90;3.70;;;;;;;9.45;59.70;100343.38;4348512;33;20626;-92
2023/01/14 10:03:20;;;;;;;7.37;3.95;;;;;;;9.37;59.70;100342.66;4354090;32;20137;-93
2023/01/14 10:06:11;;;;;;;8.10;3.47;;;;;;;9.49;59.71;100337.28;4360767;32;20127;-93
2023/01/14 10:08:39;;;;;;;7.93;4.18;;;;;;;9.52;59.70;100334.63;4350876;32;20134;-94
2023/01/14 10:11:05;;;;;;;13.32;4.20;;;;;;;9.55;59.70;100338.91;4353005;32;20535;-92
2023/01/14 10:13:38;;;;;;;10.20;3.75;;;;;;;9.63;59.71;100331.81;4352832;32;20153;-93
2023/01/14 10:16:20;;;;;;;10.23;4.10;;;;;;;9.62;59.71;100334.44;4353971;32;20103;-93
2023/01/14 10:19:18;;;;;;;7.45;3.42;;;;;;;9.94;59.74;100337.28;4354509;32;20156;-92
2023/01/14 10:21:45;;;;;;;10.13;3.95;;;;;;;9.99;59.73;100332.84;4346376;32;20078;-94
2023/01/14 10:24:14;;;;;;;11.07;4.68;;;;;;;10.18;59.74;100325.53;4365211;32;20103;-93
2023/01/14 10:26:40;;;;;;;8.83;3.63;;;;;;;10.20;59.74;100322.88;4348072;32;20103;-94
2023/01/14 10:29:14;;;;;;;10.30;4.10;;;;;;;10.25;59.75;100318.47;4353932;32;20975;-96
2023/01/14 10:31:39;;;;;;;11.30;5.18;;;;;;;10.05;59.74;100326.66;4347943;32;20079;-96
2023/01/14 10:34:05;;;;;;;9.95;4.55;;;;;;;10.28;59.75;100318.41;4354137;32;20147;-95
2023/01/14 10:36:30;;;;;;;9.52;4.05;;;;;;;10.46;59.75;100323.19;4351611;32;20106;-95
2023/01/14 10:39:00;;;;;;;10.20;3.50;;;;;;;10.37;59.75;100313.84;4345456;32;20102;-95
2023/01/14 10:44:24;;;;;;;11.23;3.05;;;;;;;10.68;59.77;100313.16;4355112;32;20137;-96
2023/01/14 10:46:52;;;;;;;7.57;3.08;;;;;;;10.60;59.76;100315.91;4353325;32;20121;-95
2023/01/14 10:49:19;;;;;;;7.43;3.35;;;;;;;10.47;59.76;100319.72;4353094;32;20095;-96
2023/01/14 10:51:49;;;;;;;8.23;3.22;;;;;;;10.41;59.75;100312.91;4350360;33;20091;-96
2023/01/14 10:54:23;;;;;;;6.20;3.28;;;;;;;10.57;59.77;100321.19;4352878;32;20738;-94
2023/01/14 10:57:13;;;;;;;7.25;3.65;;;;;;;10.31;59.74;100311.37;4353205;32;20107;-94
2023/01/14 10:59:42;;;;;;;10.32;3.90;;;;;;;10.24;59.74;100311.56;4374745;32;20095;-95
2023/01/14 11:02:28;;;;;;;8.63;3.90;;;;;;;10.29;59.74;100305.34;4348877;32;20075;-94
2023/01/14 11:04:54;;;;;;;8.50;3.60;;;;;;;10.50;59.76;100316.19;4363206;32;20186;-93
2023/01/14 11:07:41;;;;;;;11.02;4.87;;;;;;;10.44;59.75;100312.81;4350929;32;20122;-95
2023/01/14 11:10:22;;;;;;;9.70;3.97;;;;;;;10.54;59.75;100313.47;4353085;32;20884;-92
2023/01/14 11:12:47;;;;;;;9.88;4.37;;;;;;;10.59;59.76;100314.22;4352224;32;20755;-93
2023/01/14 11:15:33;;;;;;;10.15;5.00;;;;;;;10.55;59.75;100309.09;4353208;32;20173;-92
2023/01/14 11:18:17;;;;;;;11.23;4.40;;;;;;;10.61;59.76;100299.41;4373992;32;20957;-92
2023/01/14 11:20:43;;;;;;;12.02;5.07;;;;;;;10.70;59.78;100298.34;4368952;32;20461;-94
2023/01/14 11:23:16;;;;;;;7.87;4.32;;;;;;;10.48;59.76;100299.75;4351634;32;20182;-93
2023/01/14 11:25:41;;;;;;;14.57;6.32;;;;;;;10.13;59.74;100296.12;4349380;33;20465;-93
2023/01/14 11:28:07;;;;;;;9.90;4.22;;;;;;;10.27;59.75;100288.06;4349582;32;20107;-93
2023/01/14 11:30:32;;;;;;;12.73;6.68;;;;;;;10.38;59.75;100289.53;4364688;32;20399;-95
2023/01/14 11:32:59;;;;;;;12.93;5.75;;;;;;;10.45;59.75;100285.91;4364890;32;20161;-95
2023/01/14 11:35:28;;;;;;;10.07;4.70;;;;;;;10.50;59.76;100288.41;4352259;32;20137;-93
2023/01/14 11:37:54;;;;;;;12.63;5.43;;;;;;;10.62;59.76;100284.63;4351808;32;20789;-95
2023/01/14 11:43:19;;;;;;;15.18;5.28;;;;;;;10.71;59.77;100280.09;4355546;32;20117;-94
2023/01/14 11:45:44;;;;;;;10.88;5.57;;;;;;;10.95;59.79;100277.78;4352347;32;20126;-94
2023/01/14 11:48:27;;;;;;;12.37;4.82;;;;;;;10.82;59.77;100282.41;4352336;32;20100;-93
2023/01/14 11:50:57;;;;;;;8.93;4.20;;;;;;;10.83;59.78;100281.53;4352533;32;20110;-95
2023/01/14 11:53:26;;;;;;;10.38;4.60;;;;;;;10.79;59.77;100271.22;4352491;32;20099;-96
2023/01/14 11:55:52;;;;;;;12.20;4.45;;;;;;;10.85;59.77;100268.47;4352580;32;20099;-95
2023/01/14 11:58:18;;;;;;;9.55;4.32;;;;;;;10.83;59.78;100265.03;4352053;32;20157;-94
2023/01/14 12:00:56;;;;;;;8.52;3.90;;;;;;;10.95;59.79;100262.16;4364575;32;20161;-94
2023/01/14 12:03:35;;;;;;;9.63;4.25;;;;;;;11.10;59.79;100259.12;4364402;32;20456;-95
2023/01/14 12:06:10;;;;;;;7.50;3.20;;;;;;;10.87;59.78;100258.84;4363584;32;20106;-95
2023/01/14 12:08:36;;;;;;;6.32;2.80;;;;;;;11.03;59.79;100258.44;4352285;32;20083;-94
2023/01/14 12:11:02;;;;;;;7.72;3.45;;;;;;;10.84;59.77;100265.00;4352328;32;20119;-94
2023/01/14 12:16:52;;;;;;;8.73;3.08;;;;;;;10.62;59.76;100254.25;4364790;32;20194;-94
2023/01/14 12:19:20;;;;;;;6.77;2.77;;;;;;;10.57;59.77;100257.87;4364374;32;20480;-95
2023/01/14 12:22:16;;;;;;;6.65;2.72;;;;;;;10.78;59.78;100265.16;4364286;32;20185;-95
2023/01/14 12:25:03;;;;;;;10.20;2.67;;;;;;;10.90;59.78;100254.44;4362110;32;20099;-95
2023/01/14 12:27:59;;;;;;;8.50;2.35;;;;;;;10.84;59.77;100253.72;4363603;32;20181;-94
2023/01/14 12:30:36;;;;;;;6.45;2.25;;;;;;;10.84;59.77;100256.34;4364206;32;20098;-95
2023/01/14 12:33:08;;;;;;;5.40;2.05;;;;;;;10.69;59.76;100250.63;4376640;32;20094;-95
2023/01/14 12:35:41;;;;;;;5.25;2.72;;;;;;;10.74;59.77;100247.91;4364398;32;20099;-94
2023/01/14 12:45:41;;;;;;;7.40;2.72;;;;;;;10.70;59.78;100241.06;4351970;32;20071;-95
2023/01/14 12:46:26;;;;;;;8.18;2.25;;;;;;;10.53;59.76;100236.25;4364355;32;20133;-93
2023/01/14 12:48:55;;;;;;;7.75;2.40;;;;;;;10.55;59.75;100231.03;4351376;32;20127;-92
2023/01/14 12:51:25;;;;;;;6.57;2.75;;;;;;;10.52;59.76;100236.31;4363155;32;20151;-93
2023/01/14 12:53:56;;;;;;;5.50;2.70;;;;;;;10.56;59.77;100243.13;4351123;32;20150;-92
2023/01/14 12:56:29;;;;;;;7.15;2.65;;;;;;;10.52;59.76;100228.50;4363596;32;20108;-93
2023/01/14 12:58:57;;;;;;;4.75;2.65;;;;;;;10.39;59.76;100228.78;4342727;32;20111;-94
2023/01/14 13:01:23;;;;;;;10.52;2.85;;;;;;;10.51;59.76;100225.03;4350762;32;20384;-93
2023/01/14 13:03:57;;;;;;;6.12;3.20;;;;;;;10.79;59.78;100224.34;4351670;32;20091;-95
2023/01/14 13:06:25;;;;;;;5.50;2.95;;;;;;;10.68;59.77;100222.03;4363598;32;20091;-93
2023/01/14 13:08:52;;;;;;;5.60;3.08;;;;;;;10.65;59.76;100224.72;4363943;32;20222;-94
2023/01/14 13:11:23;;;;;;;7.60;3.28;;;;;;;10.62;59.76;100236.03;4351590;32;20169;-95
2023/01/14 13:13:50;;;;;;;11.35;3.20;;;;;;;10.51;59.76;100230.25;4351367;32;20090;-94
2023/01/14 13:16:36;;;;;;;5.72;3.03;;;;;;;10.60;59.76;100221.34;4351313;32;20118;-96
2023/01/14 13:19:03;;;;;;;6.20;3.22;;;;;;;10.68;59.77;100225.50;4356116;32;20810;-94
2023/01/14 13:21:55;;;;;;;8.57;2.30;;;;;;;10.65;59.77;100220.37;4349382;32;20158;-95
2023/01/14 13:24:31;;;;;;;5.93;2.65;;;;;;;10.77;59.78;100221.78;4363626;32;20098;-93
2023/01/14 13:26:57;;;;;;;5.97;2.25;;;;;;;10.73;59.77;100220.16;4363870;32;20162;-95